createdAt,value
2023-03-21T00:00:23.091Z,91
2023-03-21T00:05:29.745Z,92
2023-03-21T00:10:36.574Z,94.5
2023-03-21T00:15:42.703Z,95
2023-03-21T00:20:49.309Z,95.5
2023-03-21T00:25:55.993Z,98
2023-03-21T00:31:02.583Z,97.5
2023-03-21T00:36:09.185Z,98.5
2023-03-21T00:41:15.558Z,99.5
2023-03-21T00:46:22.126Z,99.5
2023-03-21T00:51:28.700Z,99.5
2023-03-21T00:56:35.281Z,99.5
2023-03-21T01:01:41.839Z,99.5
2023-03-21T01:06:47.672Z,99.5
2023-03-21T01:11:54.253Z,99.5
2023-03-21T01:17:00.825Z,99.5
2023-03-21T01:22:07.403Z,99.5
2023-03-21T01:27:13.974Z,99.5
2023-03-21T01:32:20.537Z,99.5
2023-03-21T01:37:27.104Z,99.5
2023-03-21T01:42:33.688Z,99.5
2023-03-21T01:47:40.264Z,99.5
2023-03-21T01:52:46.830Z,99.5
2023-03-21T01:57:53.406Z,99.5
2023-03-21T02:02:59.976Z,99.5
2023-03-21T02:08:06.543Z,99.5
2023-03-21T02:13:12.379Z,99.5
2023-03-21T02:18:18.233Z,99.5
2023-03-21T02:23:24.841Z,99.5
2023-03-21T02:28:31.417Z,99.5
2023-03-21T02:33:37.987Z,99.5
2023-03-21T02:38:44.551Z,99.5
2023-03-21T02:43:51.142Z,99.5
2023-03-21T02:48:57.708Z,99.5
2023-03-21T02:54:04.284Z,99.5
2023-03-21T02:59:10.842Z,99.5
2023-03-21T03:04:17.424Z,99.5
2023-03-21T03:09:23.989Z,99.5
2023-03-21T03:14:30.571Z,99.5
2023-03-21T03:19:37.143Z,99.5
2023-03-21T03:24:42.965Z,99.5
2023-03-21T03:29:49.567Z,99.5
2023-03-21T03:34:56.106Z,99.5
2023-03-21T03:40:02.689Z,99.5
2023-03-21T03:45:09.267Z,99.5
2023-03-21T03:50:15.821Z,99.5
2023-03-21T03:55:22.404Z,99.5
2023-03-21T04:00:28.967Z,99.5
2023-03-21T04:05:35.562Z,99.5
2023-03-21T04:10:42.135Z,99.5
2023-03-21T04:15:48.701Z,99.5
2023-03-21T04:20:55.268Z,99.5
2023-03-21T04:26:01.871Z,99.5
2023-03-21T04:31:07.690Z,99.5
2023-03-21T04:36:14.261Z,99.5
2023-03-21T04:41:20.819Z,99.5
2023-03-21T04:46:27.397Z,99.5
2023-03-21T04:51:33.981Z,99.5
2023-03-21T04:56:40.546Z,99.5
2023-03-21T05:01:47.107Z,99.5
2023-03-21T05:06:53.670Z,99.5
2023-03-21T05:12:00.274Z,99.5
2023-03-21T05:17:06.849Z,99.5
2023-03-21T05:22:13.412Z,99.5
2023-03-21T05:27:19.981Z,99.5
2023-03-21T05:32:26.556Z,99.5
2023-03-21T05:37:32.386Z,99.5
2023-03-21T05:42:38.963Z,99.5
2023-03-21T05:47:45.518Z,99.5
2023-03-21T05:52:52.104Z,99.5
2023-03-21T05:57:58.663Z,99.5
2023-03-21T06:03:05.229Z,99.5
2023-03-21T06:08:11.828Z,99.5
2023-03-21T06:13:18.376Z,99.5
2023-03-21T06:18:24.973Z,99.5
2023-03-21T06:23:31.539Z,99.5
2023-03-21T06:28:38.098Z,99.5
2023-03-21T06:33:44.685Z,99.5
2023-03-21T06:38:51.253Z,99.5
2023-03-21T06:43:57.078Z,99.5
2023-03-21T06:49:03.659Z,99.5
2023-03-21T06:54:10.218Z,99.5
2023-03-21T06:59:16.797Z,99.5
2023-03-21T07:04:23.389Z,99.5
2023-03-21T07:09:29.992Z,99.5
2023-03-21T07:14:36.513Z,99.5
2023-03-21T07:19:43.078Z,99.5
2023-03-21T07:24:49.674Z,99.5
2023-03-21T07:29:56.231Z,99.5
2023-03-21T07:35:02.799Z,99.5
2023-03-21T07:40:09.359Z,99.5
2023-03-21T07:45:16.020Z,99.5
2023-03-21T07:50:21.842Z,99.5
2023-03-21T07:55:28.348Z,99.5
2023-03-21T08:00:34.922Z,99.5
2023-03-21T08:05:41.566Z,99.5
2023-03-21T08:10:48.087Z,99.5
2023-03-21T08:15:54.625Z,99.5
2023-03-21T08:21:01.217Z,99.5
2023-03-21T08:26:07.788Z,99.5
2023-03-21T08:31:14.371Z,99.5
2023-03-21T08:36:20.941Z,99.5
2023-03-21T08:41:27.520Z,99.5
2023-03-21T08:46:34.107Z,99.5
2023-03-21T08:51:40.651Z,99.5
2023-03-21T08:56:46.507Z,99.5
2023-03-21T09:01:53.057Z,99.5
2023-03-21T09:06:59.615Z,99.5
2023-03-21T09:12:06.198Z,99.5
2023-03-21T09:17:12.768Z,99.5
2023-03-21T09:22:19.325Z,99.5
2023-03-21T09:27:25.933Z,99.5
2023-03-21T09:32:32.474Z,99.5
2023-03-21T09:37:39.053Z,99.5
2023-03-21T09:42:45.606Z,99.5
2023-03-21T09:47:52.197Z,99.5
2023-03-21T09:52:58.764Z,99.5
2023-03-21T09:58:05.323Z,99.5
2023-03-21T10:03:11.159Z,99.5
2023-03-21T10:08:18.116Z,99.5
2023-03-21T10:13:24.294Z,99.5
2023-03-21T10:18:30.870Z,99.5
2023-03-21T10:23:37.439Z,99.5
2023-03-21T10:28:44.018Z,99
2023-03-21T10:33:50.790Z,99.5
2023-03-21T10:38:57.383Z,97.5
2023-03-21T10:44:03.932Z,97.5
2023-03-21T10:49:10.451Z,97
2023-03-21T10:54:17.046Z,97
2023-03-21T10:59:23.590Z,96.5
2023-03-21T11:04:30.104Z,96
2023-03-21T11:09:35.928Z,95.5
2023-03-21T11:14:42.549Z,93.5
2023-03-21T11:19:49.339Z,93
2023-03-21T11:24:55.742Z,94
2023-03-21T11:35:08.697Z,92
2023-03-21T11:40:15.388Z,93
2023-03-21T11:45:22.040Z,91
2023-03-21T11:50:28.405Z,91.5
2023-03-21T11:55:35.136Z,91
2023-03-21T12:05:48.266Z,89.5
2023-03-21T12:10:54.871Z,88
2023-03-21T12:16:00.554Z,85
2023-03-21T12:21:07.196Z,84
2023-03-21T12:26:13.734Z,84
2023-03-21T12:31:20.205Z,85
2023-03-21T12:36:26.815Z,84.5
2023-03-21T12:41:33.392Z,83.5
2023-03-21T12:46:40.013Z,83.5
2023-03-21T12:51:46.476Z,84
2023-03-21T12:56:53.195Z,84
2023-03-21T13:01:59.746Z,82.5
2023-03-21T13:07:06.172Z,82
2023-03-21T13:12:12.794Z,82.5
2023-03-21T13:17:19.398Z,83
2023-03-21T13:22:25.232Z,82
2023-03-21T13:27:31.709Z,82
2023-03-21T13:32:38.415Z,80
2023-03-21T13:37:45.030Z,79
2023-03-21T13:47:58.113Z,80
2023-03-21T13:53:04.672Z,79
2023-03-21T13:58:11.290Z,78.5
2023-03-21T14:03:17.857Z,77
2023-03-21T14:08:24.407Z,78
2023-03-21T14:13:30.959Z,77
2023-03-21T14:18:37.498Z,76.5
2023-03-21T14:23:43.981Z,75.5
2023-03-21T14:28:49.876Z,76
2023-03-21T14:33:56.388Z,76
2023-03-21T14:39:02.952Z,76.5
2023-03-21T14:54:22.662Z,76.5
2023-03-21T14:59:28.627Z,75
2023-03-21T15:09:41.816Z,74.5
2023-03-21T15:25:01.373Z,76
2023-03-21T15:30:08.063Z,75.5
2023-03-21T15:55:40.931Z,77
2023-03-21T16:10:59.976Z,79.5
2023-03-21T16:26:19.670Z,82.5
2023-03-21T16:41:39.396Z,83.5
2023-03-21T16:56:58.980Z,85
2023-03-21T17:12:18.686Z,85.5
2023-03-21T17:27:37.695Z,85
2023-03-21T17:42:57.463Z,87
2023-03-21T18:03:23.918Z,88
2023-03-21T18:28:55.745Z,92.5
2023-03-21T18:44:15.591Z,94
2023-03-21T18:59:35.195Z,94.5
2023-03-21T19:14:55.090Z,95.5
2023-03-21T19:45:34.360Z,99
2023-03-21T20:00:53.426Z,99.5
2023-03-21T20:16:13.090Z,99.5
2023-03-21T20:31:32.791Z,99.5
2023-03-21T20:46:51.892Z,99.5
2023-03-21T21:02:11.630Z,99.5
2023-03-21T21:17:30.696Z,99.5
2023-03-21T21:27:43.771Z,99.5
2023-03-21T22:13:43.009Z,99.5
2023-03-21T22:18:48.839Z,99.5
2023-03-21T22:34:08.534Z,99.5
2023-03-21T22:39:15.111Z,99.5
2023-03-21T22:59:40.648Z,99.5
2023-03-21T23:35:26.737Z,99.5
2023-03-21T23:45:39.774Z,99.5
2023-03-21T23:50:46.007Z,99.5
